首页
METAR-TAF:

METAR-TAF

机场 :

Deer Lake, 紐芬蘭-拉布拉多, 加拿大

纬度: 49-13N, 经度: 057-24W, 海拔: 17米

当前天气观测

该预报发布于46分钟前的00:00 UTC
风速6节,风向西南
温度 12°C
湿度 54%
气压 1015 hPa
能見度: 24.1公里
多云层高于25000英尺

METAR: CYDF 210000Z 23006KT 15SM BKN250 12/03 A2996 RMK CI6 SLP149

时间: 22:16 (00:46 UTC)

预报

该预报发布于5小时和6分钟前的19:40 UTC
预报有效从20日的 20点(UTC)到 21日的 08点(UTC)
风速8节,风向西南
能見度: 10公里
少量云层高于8000英尺
散云层高于18000英尺
从 21日的 0300点(UTC)
风速8节,风向西转西南
能見度: 10公里
多云层高于8000英尺

TAF: CYDF 201940Z 2020/2108 23008KT P6SM FEW080 SCT180 FM210300 24008KT P6SM BKN080 RMK NXT FCST BY 210200Z

超过4000个机场的气象观测和天气预报(METAR&TAF报告)。

可查询的气象台以黄色和红色小点在地图上表示。

将鼠标移到小点上方,可查看气象台名称。

然后点击查看天气观测和预报。

如需切换地图:点击带黑十字的绿色按钮放大地图;点击带横线的绿色按钮缩小地图;或者点击绿色箭头查看邻近地区的地图。


METAR-TAF: